Terminal Aerodrome Forecast
Issued by NWS

Home | Current Version | Previous Version | Text Only | Print | Product List | Glossary On
Versions: 1 2 3 4 5 6 7 8 9 10 11 12 13 14 15 16 17 18 19 20 21 22
000
FTUS43 KIND 251728
TAFLAF
TAF
KLAF 251728Z 2518/2618 28018G26KT P6SM OVC035
     FM252300 28011G21KT P6SM SCT050
     FM260200 29008KT P6SM SCT110
     FM260700 28004KT P6SM FEW150
     FM261100 21004KT P6SM FEW110
     FM261400 19008KT P6SM FEW100=

USA.gov is the U.S. government's official web portal to all federal, state and local government web resources and services.